Time;durP1;ratioP1;P1;durP2;ratioP2;P2;SDS_P1;SDS_P2;PMS_P1;PMS_P2;Temp;Humidity;BMP_temperature;BMP_pressure;BME280_temperature;BME280_humidity;BME280_pressure;Samples;Min_cycle;Max_cycle;Signal;HPM_P1;HPM_P2
2022/09/05 00:00:06;;;;;;;8.17;5.90;;;16.70;1.00;;;;;;5039098;28;20405;-82
2022/09/05 00:03:02;;;;;;;8.60;5.27;;;16.70;1.00;;;;;;5038222;28;20475;-82
2022/09/05 00:06:06;;;;;;;8.30;5.23;;;16.70;1.00;;;;;;5039593;28;20458;-82
2022/09/05 00:08:52;;;;;;;9.47;5.13;;;16.70;1.00;;;;;;5021853;28;20469;-81
2022/09/05 00:11:28;;;;;;;8.47;5.50;;;16.70;1.00;;;;;;5032566;28;20555;-79
2022/09/05 00:14:19;;;;;;;7.77;5.30;;;16.70;1.00;;;;;;5035043;28;20433;-84
2022/09/05 00:17:09;;;;;;;9.50;5.77;;;16.70;1.00;;;;;;5039404;28;20427;-79
2022/09/05 00:19:50;;;;;;;9.40;5.90;;;16.70;1.00;;;;;;5019158;28;20511;-80
2022/09/05 00:22:39;;;;;;;10.43;6.13;;;16.60;1.00;;;;;;5030856;28;20445;-83
2022/09/05 00:25:41;;;;;;;12.17;6.57;;;16.60;1.00;;;;;;5039662;28;20504;-83
2022/09/05 00:28:19;;;;;;;8.73;6.17;;;16.50;1.00;;;;;;5028144;28;20404;-83
2022/09/05 00:31:07;;;;;;;10.60;5.53;;;16.60;1.00;;;;;;5039642;28;20457;-82
2022/09/05 00:33:50;;;;;;;8.70;5.80;;;16.60;1.00;;;;;;5039809;28;20586;-83
2022/09/05 00:36:41;;;;;;;8.93;5.90;;;16.60;1.00;;;;;;5037944;28;20425;-84
2022/09/05 00:39:19;;;;;;;8.20;5.50;;;16.60;1.00;;;;;;5038207;28;20515;-82
2022/09/05 00:42:02;;;;;;;8.13;5.30;;;16.50;1.00;;;;;;5040340;28;20552;-82
2022/09/05 00:44:34;;;;;;;8.90;5.60;;;16.50;1.00;;;;;;5038527;28;20459;-84
2022/09/05 00:47:10;;;;;;;10.03;5.90;;;16.40;1.00;;;;;;5022487;28;20470;-81
2022/09/05 00:49:42;;;;;;;9.80;5.70;;;16.40;1.00;;;;;;5036240;28;20425;-82
2022/09/05 00:52:18;;;;;;;9.63;5.57;;;16.40;1.00;;;;;;5041170;28;20560;-83
2022/09/05 00:54:59;;;;;;;12.67;7.63;;;16.40;1.00;;;;;;5031231;28;20417;-84
2022/09/05 00:57:50;;;;;;;9.77;6.07;;;16.30;1.00;;;;;;5031160;28;20434;-82
2022/09/05 01:00:21;;;;;;;8.80;5.83;;;16.30;1.00;;;;;;5037762;28;21039;-82
2022/09/05 01:03:39;;;;;;;8.30;5.40;;;16.30;1.00;;;;;;5045178;28;20485;-82
2022/09/05 01:06:21;;;;;;;8.80;6.40;;;16.30;1.00;;;;;;5042829;28;20440;-83
2022/09/05 01:09:20;;;;;;;13.10;6.17;;;16.30;1.00;;;;;;5030972;28;20430;-84
2022/09/05 01:12:30;;;;;;;9.50;6.90;;;16.30;1.00;;;;;;5025180;28;20422;-84
2022/09/05 01:15:22;;;;;;;10.50;5.63;;;16.20;1.00;;;;;;5032331;28;20417;-83
2022/09/05 01:18:03;;;;;;;12.37;6.40;;;16.20;1.00;;;;;;5033874;28;20450;-83
2022/09/05 01:20:43;;;;;;;8.93;6.10;;;16.10;1.00;;;;;;5036931;28;21364;-81
2022/09/05 01:23:48;;;;;;;9.60;5.63;;;16.10;1.00;;;;;;5037336;28;20439;-82
2022/09/05 01:26:40;;;;;;;10.40;6.17;;;16.00;1.00;;;;;;5026049;28;20428;-84
2022/09/05 01:29:18;;;;;;;8.73;5.93;;;16.00;1.00;;;;;;5046708;28;20433;-82
2022/09/05 01:32:02;;;;;;;8.87;5.63;;;16.00;1.00;;;;;;5047886;28;20463;-83
2022/09/05 01:34:40;;;;;;;10.90;6.80;;;16.00;1.00;;;;;;5046989;28;20424;-82
2022/09/05 01:37:21;;;;;;;8.50;6.17;;;16.00;1.00;;;;;;5051758;28;24397;-82
2022/09/05 01:39:59;;;;;;;8.47;6.17;;;16.00;1.00;;;;;;5050176;28;20456;-81
2022/09/05 01:42:39;;;;;;;9.17;6.17;;;16.00;1.00;;;;;;5038555;28;20429;-81
2022/09/05 01:45:21;;;;;;;8.83;6.07;;;16.00;1.00;;;;;;5048804;28;20459;-82
2022/09/05 01:48:01;;;;;;;10.40;6.50;;;15.90;1.00;;;;;;5048752;28;20433;-82
2022/09/05 01:50:51;;;;;;;9.00;5.73;;;15.90;1.00;;;;;;5051338;28;20457;-81
2022/09/05 01:53:31;;;;;;;11.17;6.60;;;15.90;1.00;;;;;;5046465;28;20425;-83
2022/09/05 01:56:30;;;;;;;10.53;7.37;;;15.80;1.00;;;;;;5046543;28;20519;-83
2022/09/05 01:59:23;;;;;;;12.77;6.70;;;15.70;1.00;;;;;;5046773;28;20542;-82
2022/09/05 02:02:13;;;;;;;10.83;7.10;;;15.70;1.00;;;;;;5044706;28;20476;-81
2022/09/05 02:05:21;;;;;;;13.60;6.87;;;15.60;1.00;;;;;;5044580;28;20522;-83
2022/09/05 02:08:19;;;;;;;10.50;6.70;;;15.60;1.00;;;;;;5019393;28;20462;-84
2022/09/05 02:11:02;;;;;;;10.70;6.53;;;15.60;1.00;;;;;;5045123;28;20426;-83
2022/09/05 02:13:57;;;;;;;12.33;7.37;;;15.60;1.00;;;;;;5042627;28;20457;-81
2022/09/05 02:16:41;;;;;;;13.53;7.40;;;15.60;1.00;;;;;;5048661;28;20551;-84
2022/09/05 02:19:24;;;;;;;10.30;7.63;;;15.50;1.00;;;;;;5048210;28;20543;-84
2022/09/05 02:22:03;;;;;;;10.57;7.13;;;15.50;1.00;;;;;;5045691;28;20930;-80
2022/09/05 02:24:48;;;;;;;10.60;6.93;;;15.50;1.00;;;;;;5045682;28;20500;-86
2022/09/05 02:27:31;;;;;;;10.10;6.83;;;15.50;1.00;;;;;;5034938;28;20472;-84
2022/09/05 02:30:10;;;;;;;9.60;6.30;;;15.50;1.00;;;;;;5046599;28;20418;-85
2022/09/05 02:32:55;;;;;;;11.03;6.80;;;15.50;1.00;;;;;;5038630;28;20429;-83
2022/09/05 02:35:32;;;;;;;10.50;6.67;;;15.40;1.00;;;;;;5041975;28;21251;-79
2022/09/05 02:38:11;;;;;;;15.73;8.33;;;15.40;1.00;;;;;;5035804;28;20444;-85
2022/09/05 02:40:43;;;;;;;10.40;6.60;;;15.40;1.00;;;;;;5031590;28;20453;-81
2022/09/05 02:43:19;;;;;;;10.40;7.20;;;15.40;1.00;;;;;;5042273;28;20497;-82
2022/09/05 02:45:58;;;;;;;11.03;6.83;;;15.40;1.00;;;;;;5043779;28;20417;-83
2022/09/05 02:48:38;;;;;;;12.40;6.77;;;15.40;1.00;;;;;;5040100;28;20500;-86
2022/09/05 02:51:30;;;;;;;10.83;6.27;;;15.40;1.00;;;;;;5043504;28;20432;-84
2022/09/05 02:54:02;;;;;;;10.23;5.70;;;15.30;1.00;;;;;;5025904;28;20453;-82
2022/09/05 02:56:44;;;;;;;9.63;6.20;;;15.30;1.00;;;;;;5019394;28;20453;-84
2022/09/05 02:59:40;;;;;;;12.13;7.50;;;15.30;1.00;;;;;;5028076;28;20671;-84
2022/09/05 03:02:21;;;;;;;12.67;7.17;;;15.20;1.00;;;;;;5044809;28;20492;-80
2022/09/05 03:04:55;;;;;;;11.13;6.50;;;15.30;1.00;;;;;;5043985;28;20447;-80
2022/09/05 03:07:49;;;;;;;12.67;6.43;;;15.30;1.00;;;;;;5034632;28;21275;-80
2022/09/05 03:10:50;;;;;;;9.30;6.63;;;15.20;1.00;;;;;;5043438;28;20459;-82
2022/09/05 03:13:59;;;;;;;12.57;6.77;;;15.20;1.00;;;;;;5037804;28;20456;-84
2022/09/05 03:16:59;;;;;;;12.33;6.57;;;15.20;1.00;;;;;;5024773;28;20434;-84
2022/09/05 03:20:10;;;;;;;11.67;6.70;;;15.20;1.00;;;;;;5011865;28;20416;-84
2022/09/05 03:23:29;;;;;;;11.60;6.47;;;15.20;1.00;;;;;;5042622;28;20661;-83
2022/09/05 03:26:20;;;;;;;9.50;5.87;;;15.20;1.00;;;;;;5032259;28;20464;-83
2022/09/05 03:29:18;;;;;;;11.50;6.70;;;15.20;1.00;;;;;;5030780;28;20476;-82
2022/09/05 03:32:20;;;;;;;15.00;6.80;;;15.20;1.00;;;;;;5036989;28;20513;-84
2022/09/05 03:35:20;;;;;;;11.60;6.47;;;15.10;1.00;;;;;;4972705;28;20443;-81
2022/09/05 03:38:19;;;;;;;10.23;6.63;;;15.10;1.00;;;;;;5023605;28;20409;-81
2022/09/05 03:41:12;;;;;;;8.73;6.00;;;15.10;1.00;;;;;;5037444;28;20420;-82
2022/09/05 03:44:11;;;;;;;11.40;6.70;;;15.00;1.00;;;;;;5042945;28;21210;-83
2022/09/05 03:47:02;;;;;;;9.80;6.20;;;15.00;1.00;;;;;;5031800;28;20476;-83
2022/09/05 03:49:58;;;;;;;18.03;11.60;;;15.00;1.00;;;;;;5041328;28;20441;-83
2022/09/05 03:52:42;;;;;;;10.50;6.10;;;15.00;1.00;;;;;;5039697;28;20827;-82
2022/09/05 03:55:42;;;;;;;11.20;6.53;;;14.90;1.00;;;;;;5038267;28;20436;-82
2022/09/05 03:58:38;;;;;;;10.30;5.83;;;14.90;1.00;;;;;;5020832;28;20491;-81
2022/09/05 04:01:12;;;;;;;12.70;7.57;;;14.90;1.00;;;;;;5023971;28;20452;-86
2022/09/05 04:03:48;;;;;;;9.87;6.40;;;14.90;1.00;;;;;;5033408;28;20456;-81
2022/09/05 04:06:26;;;;;;;10.30;5.90;;;14.90;1.00;;;;;;5034634;28;20496;-84
2022/09/05 04:09:09;;;;;;;8.77;5.23;;;14.80;1.00;;;;;;5034660;28;20551;-83
2022/09/05 04:11:44;;;;;;;9.20;6.07;;;14.80;1.00;;;;;;5042797;28;20437;-84
2022/09/05 04:14:21;;;;;;;11.17;6.50;;;14.80;1.00;;;;;;5037097;28;20433;-83
2022/09/05 04:16:57;;;;;;;12.63;6.13;;;14.80;1.00;;;;;;5037427;28;20460;-84
2022/09/05 04:19:34;;;;;;;11.53;5.97;;;14.80;1.00;;;;;;5039721;28;20552;-82
2022/09/05 04:22:17;;;;;;;9.97;5.83;;;14.70;1.00;;;;;;5038693;28;20508;-83
2022/09/05 04:24:59;;;;;;;11.37;6.40;;;14.70;1.00;;;;;;5040832;28;20425;-84
2022/09/05 04:27:40;;;;;;;10.33;5.80;;;14.70;1.00;;;;;;5036674;28;20409;-85
2022/09/05 04:30:35;;;;;;;10.03;5.80;;;14.70;1.00;;;;;;5040896;28;20421;-80
2022/09/05 04:33:13;;;;;;;13.97;6.97;;;14.60;1.00;;;;;;5041357;28;20478;-83
2022/09/05 04:35:56;;;;;;;8.37;5.20;;;14.60;1.00;;;;;;5034720;28;20566;-83
2022/09/05 04:38:40;;;;;;;8.60;5.40;;;14.70;1.00;;;;;;5031615;28;20453;-83
2022/09/05 04:41:13;;;;;;;9.20;5.60;;;14.70;1.00;;;;;;5036846;28;20444;-85
2022/09/05 04:43:51;;;;;;;11.30;6.07;;;14.70;1.00;;;;;;5038997;28;20446;-85
2022/09/05 04:46:22;;;;;;;11.60;5.87;;;14.70;1.00;;;;;;5036676;28;20456;-83
2022/09/05 04:49:00;;;;;;;12.80;5.53;;;14.70;1.00;;;;;;5034974;28;20473;-87
2022/09/05 04:51:57;;;;;;;11.00;5.70;;;14.70;1.00;;;;;;5037033;28;20440;-84
2022/09/05 04:54:40;;;;;;;12.70;5.13;;;14.80;1.00;;;;;;5039810;28;20504;-84
2022/09/05 04:57:19;;;;;;;13.47;6.57;;;14.80;1.00;;;;;;5036415;28;20464;-80
2022/09/05 04:59:58;;;;;;;10.40;5.20;;;14.90;1.00;;;;;;5042112;28;20817;-79
2022/09/05 05:02:33;;;;;;;12.13;7.20;;;15.00;1.00;;;;;;5029686;28;20480;-80
2022/09/05 05:05:02;;;;;;;9.83;5.83;;;15.00;1.00;;;;;;5040231;28;20488;-78
2022/09/05 05:07:41;;;;;;;10.07;5.17;;;15.00;1.00;;;;;;5025263;28;21294;-81
2022/09/05 05:10:24;;;;;;;12.40;5.73;;;15.00;1.00;;;;;;5018047;28;20411;-76
2022/09/05 05:13:02;;;;;;;8.73;5.03;;;14.90;1.00;;;;;;5035272;28;20468;-86
2022/09/05 05:15:36;;;;;;;11.30;5.50;;;14.90;1.00;;;;;;5042785;28;20425;-80
2022/09/05 05:18:13;;;;;;;12.07;5.77;;;14.90;1.00;;;;;;5040082;28;20581;-78
2022/09/05 05:20:50;;;;;;;9.27;5.10;;;14.90;1.00;;;;;;5043283;28;20489;-80
2022/09/05 05:23:31;;;;;;;10.90;7.00;;;15.00;1.00;;;;;;5039878;28;20836;-82
2022/09/05 05:26:04;;;;;;;8.90;5.20;;;15.10;1.00;;;;;;5046827;28;21308;-85
2022/09/05 05:28:52;;;;;;;9.10;4.60;;;15.20;1.00;;;;;;5041757;28;20480;-81
2022/09/05 05:31:24;;;;;;;13.20;5.57;;;15.20;1.00;;;;;;5035675;28;20445;-81
2022/09/05 05:33:57;;;;;;;10.83;5.00;;;15.30;1.00;;;;;;5032978;28;20428;-79
2022/09/05 05:36:31;;;;;;;10.07;4.73;;;15.30;1.00;;;;;;5039579;28;20521;-76
2022/09/05 05:39:04;;;;;;;12.10;6.17;;;15.30;1.00;;;;;;5033586;28;20471;-78
2022/09/05 05:41:41;;;;;;;14.70;5.83;;;15.50;1.00;;;;;;5027291;28;20453;-80
2022/09/05 05:44:17;;;;;;;10.33;5.17;;;15.50;1.00;;;;;;5039989;28;20440;-80
2022/09/05 05:46:56;;;;;;;10.63;5.83;;;15.50;1.00;;;;;;5036933;28;20492;-80
2022/09/05 05:49:33;;;;;;;10.80;5.73;;;15.60;1.00;;;;;;5014688;28;20434;-79
2022/09/05 05:52:22;;;;;;;9.20;4.70;;;15.70;1.00;;;;;;5044098;28;20425;-78
2022/09/05 05:54:59;;;;;;;12.13;5.63;;;15.60;1.00;;;;;;5043009;28;20473;-81
2022/09/05 05:57:48;;;;;;;12.03;4.30;;;15.70;1.00;;;;;;5025224;28;20829;-80
2022/09/05 06:00:20;;;;;;;10.70;5.10;;;15.60;1.00;;;;;;5033023;28;20421;-80
2022/09/05 06:03:24;;;;;;;12.07;4.97;;;15.90;1.00;;;;;;5046359;28;20541;-80
2022/09/05 06:06:16;;;;;;;11.40;4.87;;;16.10;1.00;;;;;;5038467;28;20480;-78
2022/09/05 06:09:35;;;;;;;9.57;5.70;;;16.10;1.00;;;;;;5063335;28;20454;-81
2022/09/05 06:13:00;;;;;;;13.10;5.47;;;16.00;1.00;;;;;;5056388;28;20458;-77
2022/09/05 06:16:11;;;;;;;9.50;4.53;;;15.90;1.00;;;;;;5060682;28;20420;-78
2022/09/05 06:19:11;;;;;;;11.23;4.87;;;15.90;1.00;;;;;;5062416;28;20438;-76
2022/09/05 06:22:12;;;;;;;8.93;4.57;;;15.90;1.00;;;;;;5059434;28;20953;-76
2022/09/05 06:25:31;;;;;;;13.20;4.80;;;16.00;1.00;;;;;;5059230;28;20457;-80
2022/09/05 06:28:19;;;;;;;10.90;4.40;;;16.00;1.00;;;;;;5063433;28;20539;-77
2022/09/05 06:30:55;;;;;;;8.53;4.97;;;16.00;1.00;;;;;;5056901;28;21197;-81
2022/09/05 06:33:40;;;;;;;8.10;4.70;;;16.10;1.00;;;;;;5057658;28;20901;-81
2022/09/05 06:36:31;;;;;;;10.60;4.53;;;16.10;1.00;;;;;;5054918;28;20434;-77
2022/09/05 06:42:18;;;;;;;8.47;5.13;;;16.30;1.00;;;;;;5192724;27;20553;-80
2022/09/05 06:45:05;;;;;;;8.23;4.70;;;16.30;1.00;;;;;;5175841;27;20558;-77
2022/09/05 06:47:36;;;;;;;10.90;5.70;;;16.40;1.00;;;;;;5165016;27;20486;-77
2022/09/05 06:50:12;;;;;;;7.50;4.63;;;16.50;1.00;;;;;;5164912;27;20459;-83
2022/09/05 06:53:24;;;;;;;8.57;4.83;;;16.70;1.00;;;;;;5167886;27;20450;-77
2022/09/05 06:56:08;;;;;;;13.00;5.90;;;16.70;1.00;;;;;;5167555;27;20428;-78
2022/09/05 06:59:22;;;;;;;9.13;4.63;;;16.90;1.00;;;;;;5156570;27;21358;-78
2022/09/05 07:01:55;;;;;;;8.13;4.33;;;17.10;1.00;;;;;;5172233;27;20422;-79
2022/09/05 07:04:32;;;;;;;10.30;5.67;;;17.30;1.00;;;;;;5151975;27;20481;-81
2022/09/05 07:07:12;;;;;;;11.53;5.87;;;17.40;1.00;;;;;;5176570;27;20465;-79
2022/09/05 07:09:53;;;;;;;14.17;5.60;;;17.60;1.00;;;;;;5196091;27;20434;-79
2022/09/05 07:12:30;;;;;;;9.10;5.33;;;17.80;1.00;;;;;;5179321;27;20395;-80
2022/09/05 07:15:12;;;;;;;11.17;5.07;;;18.00;1.00;;;;;;5188574;27;20434;-82
2022/09/05 07:18:07;;;;;;;10.53;5.40;;;18.00;1.00;;;;;;5194761;27;20469;-79
2022/09/05 07:20:43;;;;;;;12.03;5.20;;;18.20;1.00;;;;;;5190300;27;20486;-78
2022/09/05 07:23:22;;;;;;;11.50;6.20;;;18.30;1.00;;;;;;5185504;27;20408;-81
2022/09/05 07:25:58;;;;;;;8.60;5.13;;;18.30;1.00;;;;;;5191767;27;20463;-77
2022/09/05 07:28:29;;;;;;;8.50;5.00;;;18.10;1.00;;;;;;5188705;27;20948;-75
2022/09/05 07:31:02;;;;;;;11.83;6.20;;;18.20;1.00;;;;;;5184716;27;20457;-77
2022/09/05 07:33:39;;;;;;;11.00;6.70;;;18.30;1.00;;;;;;5190771;27;20478;-76
2022/09/05 07:36:12;;;;;;;11.13;5.90;;;18.50;1.00;;;;;;5192147;27;20561;-77
2022/09/05 07:38:40;;;;;;;8.00;5.03;;;18.70;1.00;;;;;;5189236;27;20453;-82
2022/09/05 07:41:22;;;;;;;12.23;6.13;;;18.70;1.00;;;;;;5188792;27;20466;-78
2022/09/05 07:44:00;;;;;;;10.37;5.90;;;18.90;1.00;;;;;;5196148;27;20417;-80
2022/09/05 07:46:37;;;;;;;10.90;5.83;;;19.10;1.00;;;;;;5188140;27;20437;-78
2022/09/05 07:49:13;;;;;;;11.47;6.67;;;19.10;1.00;;;;;;5172469;27;20414;-77
2022/09/05 07:51:52;;;;;;;10.13;6.03;;;19.20;1.00;;;;;;5186578;27;20454;-77
2022/09/05 07:54:25;;;;;;;10.10;5.10;;;19.20;1.00;;;;;;5178965;27;20482;-82
2022/09/05 07:56:58;;;;;;;7.97;4.90;;;19.30;1.00;;;;;;5175059;27;20412;-76
2022/09/05 07:59:34;;;;;;;8.30;4.90;;;19.40;1.00;;;;;;5178349;27;20966;-77
2022/09/05 08:02:04;;;;;;;8.00;5.50;;;19.40;1.00;;;;;;5157889;27;20468;-77
2022/09/05 08:04:34;;;;;;;11.10;5.43;;;19.40;1.00;;;;;;5157743;27;20420;-82
2022/09/05 08:07:11;;;;;;;12.90;6.03;;;19.50;1.00;;;;;;5156276;27;20468;-78
2022/09/05 08:09:43;;;;;;;9.13;5.50;;;19.60;1.00;;;;;;5153203;27;21003;-77
2022/09/05 08:12:17;;;;;;;8.50;5.30;;;19.70;1.00;;;;;;5158912;27;20409;-76
2022/09/05 08:14:57;;;;;;;7.10;4.70;;;19.80;1.00;;;;;;5157356;27;20511;-77
2022/09/05 08:17:31;;;;;;;8.40;5.27;;;19.90;1.00;;;;;;5152701;27;20437;-76
2022/09/05 08:20:18;;;;;;;9.83;6.40;;;19.70;1.00;;;;;;5158222;27;20918;-77
2022/09/05 08:22:56;;;;;;;10.50;5.60;;;19.50;1.00;;;;;;5154811;27;20428;-76
2022/09/05 08:25:32;;;;;;;8.77;5.83;;;19.70;1.00;;;;;;5153577;27;20465;-77
2022/09/05 08:28:15;;;;;;;10.30;5.43;;;19.90;1.00;;;;;;5135813;27;20475;-82
2022/09/05 08:30:52;;;;;;;9.20;5.50;;;20.00;1.00;;;;;;5134315;27;21318;-77
2022/09/05 08:33:24;;;;;;;7.33;5.33;;;20.10;1.00;;;;;;5134332;27;21418;-76
2022/09/05 08:35:55;;;;;;;9.17;5.27;;;20.20;1.00;;;;;;5138057;27;21058;-77
2022/09/05 08:38:22;;;;;;;9.23;5.20;;;20.40;1.00;;;;;;5140653;27;20455;-79
2022/09/05 08:40:59;;;;;;;8.23;5.00;;;20.50;1.00;;;;;;5148855;27;20455;-76
2022/09/05 08:43:33;;;;;;;10.60;5.57;;;20.70;1.00;;;;;;5145925;27;20534;-75
2022/09/05 08:46:08;;;;;;;7.70;5.43;;;20.90;1.00;;;;;;5154145;27;20441;-76
2022/09/05 08:49:02;;;;;;;9.03;5.87;;;20.80;1.00;;;;;;5156491;27;20474;-77
2022/09/05 08:51:39;;;;;;;8.67;6.20;;;20.80;1.00;;;;;;5132735;27;21047;-83
2022/09/05 08:54:18;;;;;;;9.23;5.33;;;21.00;1.00;;;;;;5136688;27;20490;-83
2022/09/05 08:56:58;;;;;;;9.93;6.00;;;21.20;1.00;;;;;;5152882;27;20526;-81
2022/09/05 08:59:42;;;;;;;8.17;5.27;;;21.50;1.00;;;;;;5146185;27;20556;-82
2022/09/05 09:02:45;;;;;;;11.03;5.67;;;21.60;1.00;;;;;;5149892;27;20865;-83
2022/09/05 09:05:26;;;;;;;11.17;5.13;;;21.80;1.00;;;;;;5100249;27;20456;-81
2022/09/05 09:07:57;;;;;;;8.33;5.73;;;21.90;1.00;;;;;;5152066;27;20439;-80
2022/09/05 09:10:41;;;;;;;7.40;5.00;;;22.10;1.00;;;;;;5142039;27;20422;-79
2022/09/05 09:13:22;;;;;;;10.70;5.40;;;22.10;1.00;;;;;;5133859;27;20500;-82
2022/09/05 09:16:12;;;;;;;8.33;5.60;;;22.20;1.00;;;;;;5139343;27;20425;-79
2022/09/05 09:22:12;;;;;;;8.50;5.67;;;22.80;1.00;;;;;;5138341;27;20522;-77
2022/09/05 09:24:42;;;;;;;10.90;6.23;;;23.60;1.00;;;;;;5137959;27;20487;-77
2022/09/05 09:27:32;;;;;;;7.93;4.97;;;25.00;1.00;;;;;;5137242;27;20451;-77
2022/09/05 09:30:04;;;;;;;8.73;4.90;;;26.30;1.00;;;;;;5149536;27;21260;-76
2022/09/05 09:32:43;;;;;;;9.43;4.93;;;27.60;1.00;;;;;;5154491;27;20492;-76
2022/09/05 09:35:30;;;;;;;6.33;4.50;;;28.50;1.00;;;;;;5156186;27;20425;-78
2022/09/05 09:38:22;;;;;;;7.60;5.07;;;29.60;1.00;;;;;;5138350;27;20448;-78
2022/09/05 09:41:33;;;;;;;7.70;5.47;;;29.60;1.00;;;;;;5157193;27;20419;-76
2022/09/05 09:44:56;;;;;;;8.87;5.13;;;29.30;1.00;;;;;;5163304;27;20468;-83
2022/09/05 09:47:41;;;;;;;6.33;4.37;;;29.60;1.00;;;;;;5143465;27;20471;-83
2022/09/05 09:50:22;;;;;;;7.63;4.37;;;30.20;1.00;;;;;;5159489;27;20477;-82
2022/09/05 09:53:17;;;;;;;8.73;5.20;;;30.90;1.00;;;;;;5167208;27;20414;-83
2022/09/05 09:56:19;;;;;;;6.63;4.33;;;31.90;1.00;;;;;;5131754;27;20543;-77
2022/09/05 09:59:12;;;;;;;6.87;4.20;;;31.20;1.00;;;;;;5151135;27;20513;-78
2022/09/05 10:01:58;;;;;;;7.13;4.70;;;30.80;1.00;;;;;;5159561;27;20513;-78
2022/09/05 10:04:51;;;;;;;7.50;4.90;;;30.10;1.00;;;;;;5145813;27;20910;-76
2022/09/05 10:07:39;;;;;;;7.33;4.60;;;30.20;1.00;;;;;;5148591;27;20476;-81
2022/09/05 10:10:34;;;;;;;7.93;4.73;;;30.50;1.00;;;;;;5146688;27;20500;-76
2022/09/05 10:13:21;;;;;;;8.00;4.67;;;31.30;1.00;;;;;;5155134;27;20561;-80
2022/09/05 10:16:24;;;;;;;7.50;4.93;;;31.50;1.00;;;;;;5148649;27;20444;-79
2022/09/05 10:19:21;;;;;;;6.60;4.00;;;31.60;1.00;;;;;;5157722;27;20424;-76
2022/09/05 10:22:19;;;;;;;8.30;4.53;;;32.00;1.00;;;;;;5143736;27;20424;-79
2022/09/05 10:25:27;;;;;;;6.67;4.33;;;32.00;1.00;;;;;;5131164;27;20480;-80
2022/09/05 10:28:13;;;;;;;8.43;4.07;;;32.60;1.00;;;;;;5137652;27;20514;-81
2022/09/05 10:30:53;;;;;;;7.70;4.40;;;32.40;1.00;;;;;;5151070;27;20472;-84
2022/09/05 10:33:35;;;;;;;6.33;3.97;;;32.00;1.00;;;;;;5128252;27;20974;-79
2022/09/05 10:36:22;;;;;;;8.10;4.80;;;32.20;1.00;;;;;;5134797;27;20497;-77
2022/09/05 10:39:01;;;;;;;7.70;4.33;;;33.20;1.00;;;;;;5133402;27;20429;-78
2022/09/05 10:41:48;;;;;;;7.53;4.30;;;33.80;1.00;;;;;;5131080;27;20469;-78
2022/09/05 10:44:33;;;;;;;7.43;4.67;;;33.80;1.00;;;;;;5130588;27;20476;-76
2022/09/05 10:47:18;;;;;;;6.87;4.60;;;33.60;1.00;;;;;;5138712;27;20591;-80
2022/09/05 10:49:59;;;;;;;7.27;4.20;;;34.40;1.00;;;;;;5153363;27;20460;-81
2022/09/05 10:52:35;;;;;;;4.90;3.50;;;35.00;1.00;;;;;;5153444;27;20515;-81
2022/09/05 10:55:20;;;;;;;6.30;4.90;;;34.70;1.00;;;;;;5149426;27;20448;-80
2022/09/05 10:57:59;;;;;;;5.87;3.97;;;35.50;1.00;;;;;;5150880;27;20491;-80
2022/09/05 11:01:00;;;;;;;5.70;3.60;;;35.40;1.00;;;;;;5155110;27;20479;-81
2022/09/05 11:03:45;;;;;;;5.27;4.00;;;34.50;1.00;;;;;;5120737;27;20543;-79
2022/09/05 11:06:19;;;;;;;7.00;4.20;;;34.30;1.00;;;;;;5134346;27;20432;-80
2022/09/05 11:08:59;;;;;;;5.27;4.03;;;33.70;1.00;;;;;;5153771;27;20461;-79
2022/09/05 11:11:32;;;;;;;6.73;4.30;;;32.70;1.00;;;;;;5139121;27;21346;-78
2022/09/05 11:14:03;;;;;;;6.30;3.80;;;32.90;1.00;;;;;;5148988;27;21037;-80
2022/09/05 11:16:46;;;;;;;7.53;3.77;;;33.30;1.00;;;;;;5146762;27;20497;-79
2022/09/05 11:19:32;;;;;;;6.40;4.07;;;34.60;1.00;;;;;;5149713;27;20449;-80
2022/09/05 11:22:05;;;;;;;6.60;4.10;;;35.90;1.00;;;;;;5134191;27;20452;-80
2022/09/05 11:24:41;;;;;;;5.80;3.67;;;36.40;1.00;;;;;;5138335;27;20504;-79
2022/09/05 11:27:26;;;;;;;8.20;4.27;;;37.20;1.00;;;;;;5160272;27;20542;-79
2022/09/05 11:29:57;;;;;;;7.03;3.90;;;36.60;1.00;;;;;;5155301;27;20472;-79
2022/09/05 11:32:59;;;;;;;6.10;3.90;;;34.80;1.00;;;;;;5157597;27;20463;-86
2022/09/05 11:35:35;;;;;;;5.50;4.00;;;34.30;1.00;;;;;;5154593;27;20908;-84
2022/09/05 11:38:42;;;;;;;7.20;4.67;;;34.80;1.00;;;;;;5155486;27;20445;-78
2022/09/05 11:41:48;;;;;;;5.43;4.20;;;35.40;1.00;;;;;;5154037;27;20426;-85
2022/09/05 11:44:45;;;;;;;7.90;4.20;;;36.20;1.00;;;;;;5160419;27;21084;-85
2022/09/05 11:47:51;;;;;;;8.10;4.33;;;36.10;1.00;;;;;;5154288;27;20466;-79
2022/09/05 11:50:54;;;;;;;5.10;4.10;;;35.50;1.00;;;;;;5162086;27;20560;-79
2022/09/05 11:53:58;;;;;;;6.63;4.20;;;33.50;1.00;;;;;;5155898;27;20419;-84
2022/09/05 11:57:05;;;;;;;8.03;4.50;;;32.90;1.00;;;;;;5154910;27;20547;-84
2022/09/05 12:00:12;;;;;;;7.07;4.33;;;31.70;1.00;;;;;;5089594;28;20447;-85
2022/09/05 12:03:16;;;;;;;6.80;4.50;;;32.50;1.00;;;;;;5148274;27;20433;-79
2022/09/05 12:06:04;;;;;;;8.77;4.60;;;33.50;1.00;;;;;;5116761;27;20544;-78
2022/09/05 12:08:39;;;;;;;5.70;4.27;;;33.90;1.00;;;;;;5159802;27;20444;-79
2022/09/05 12:11:22;;;;;;;5.90;4.70;;;34.80;1.00;;;;;;5160625;27;20481;-87
2022/09/05 12:14:00;;;;;;;7.40;4.37;;;35.50;1.00;;;;;;5154720;27;20435;-78
2022/09/05 12:16:46;;;;;;;6.67;4.50;;;34.20;1.00;;;;;;5143715;27;20441;-76
2022/09/05 12:19:34;;;;;;;7.90;5.37;;;32.40;1.00;;;;;;5156440;27;20420;-80
2022/09/05 12:22:25;;;;;;;6.13;4.27;;;32.50;1.00;;;;;;5134307;27;20453;-81
2022/09/05 12:25:21;;;;;;;6.07;4.63;;;33.80;1.00;;;;;;5141541;27;20457;-77
2022/09/05 12:27:54;;;;;;;6.53;5.20;;;34.10;1.00;;;;;;5148703;27;20556;-87
2022/09/05 12:30:32;;;;;;;7.90;5.30;;;34.70;1.00;;;;;;5154906;27;20551;-80
2022/09/05 12:33:04;;;;;;;7.30;5.50;;;34.30;1.00;;;;;;5160170;27;20435;-81
2022/09/05 12:35:38;;;;;;;6.93;4.80;;;32.30;1.00;;;;;;5156393;27;20462;-80
2022/09/05 12:38:32;;;;;;;7.50;4.70;;;31.20;1.00;;;;;;5156220;27;20538;-79
2022/09/05 12:41:05;;;;;;;6.13;5.23;;;32.10;1.00;;;;;;5144905;27;20900;-84
2022/09/05 12:43:35;;;;;;;8.37;6.30;;;32.50;1.00;;;;;;5139733;27;20501;-77
2022/09/05 12:46:07;;;;;;;6.73;5.87;;;31.50;1.00;;;;;;5120746;27;20457;-78
2022/09/05 12:48:44;;;;;;;7.63;4.90;;;30.40;1.00;;;;;;5158473;27;20470;-79
2022/09/05 12:51:19;;;;;;;8.45;5.70;;;30.20;1.00;;;;;;5158064;27;20603;-77
2022/09/05 12:54:00;;;;;;;9.40;5.90;;;30.80;1.00;;;;;;5154992;27;21225;-80
2022/09/05 12:56:39;;;;;;;6.90;5.50;;;30.20;1.00;;;;;;5153237;27;20452;-85
2022/09/05 12:59:19;;;;;;;5.80;5.20;;;30.50;1.00;;;;;;5158587;27;20846;-79
2022/09/05 13:02:02;;;;;;;8.70;6.10;;;31.20;1.00;;;;;;5161813;27;20503;-79
2022/09/05 13:04:36;;;;;;;7.47;5.70;;;31.30;1.00;;;;;;5151855;27;20978;-79
2022/09/05 13:07:12;;;;;;;7.60;5.70;;;30.80;1.00;;;;;;5157050;27;20510;-79
2022/09/05 13:09:44;;;;;;;14.77;8.10;;;30.00;1.00;;;;;;5135802;27;20493;-84
2022/09/05 13:12:18;;;;;;;6.43;5.10;;;30.50;1.00;;;;;;5155452;27;20671;-78
2022/09/05 13:15:02;;;;;;;9.10;6.00;;;31.00;1.00;;;;;;5156968;27;20439;-79
2022/09/05 13:17:38;;;;;;;7.57;4.90;;;31.80;1.00;;;;;;5153849;27;20413;-86
2022/09/05 13:20:19;;;;;;;9.27;5.73;;;31.60;1.00;;;;;;5156985;27;20612;-80
2022/09/05 13:23:01;;;;;;;7.73;5.60;;;31.20;1.00;;;;;;5150709;27;20451;-79
2022/09/05 13:25:40;;;;;;;8.10;6.03;;;32.00;1.00;;;;;;5157491;27;20441;-80
2022/09/05 13:28:14;;;;;;;8.43;5.53;;;33.20;1.00;;;;;;5154960;27;20424;-83
2022/09/05 13:30:56;;;;;;;7.93;4.93;;;34.50;1.00;;;;;;5149868;27;20474;-77
2022/09/05 13:33:26;;;;;;;6.73;5.27;;;34.30;1.00;;;;;;5156755;27;20413;-85
2022/09/05 13:36:04;;;;;;;6.70;5.00;;;33.60;1.00;;;;;;5152474;27;20443;-86
2022/09/05 13:38:47;;;;;;;6.60;5.63;;;33.60;1.00;;;;;;5152527;27;20434;-85
2022/09/05 13:41:27;;;;;;;6.97;5.63;;;33.30;1.00;;;;;;5148617;27;20431;-77
2022/09/05 13:43:55;;;;;;;6.73;5.17;;;33.00;1.00;;;;;;5151143;27;20455;-79
2022/09/05 13:46:40;;;;;;;6.60;4.97;;;33.10;1.00;;;;;;5155572;27;20424;-78
2022/09/05 13:49:19;;;;;;;9.07;5.40;;;32.70;1.00;;;;;;5151034;27;20555;-77
2022/09/05 13:51:52;;;;;;;7.77;6.60;;;31.40;1.00;;;;;;5150314;27;21018;-86
2022/09/05 13:54:39;;;;;;;6.63;5.50;;;29.90;1.00;;;;;;5120372;27;20456;-85
2022/09/05 13:57:26;;;;;;;7.10;6.13;;;28.90;1.00;;;;;;5150449;27;20539;-79
2022/09/05 14:00:45;;;;;;;7.77;6.30;;;28.10;1.00;;;;;;5147852;27;20409;-85
2022/09/05 14:03:57;;;;;;;10.80;6.70;;;27.30;1.00;;;;;;5147953;27;20426;-85
2022/09/05 14:07:13;;;;;;;8.47;6.30;;;26.60;1.00;;;;;;5112194;27;20470;-76
2022/09/05 14:10:09;;;;;;;8.87;6.70;;;26.40;1.00;;;;;;5044592;28;20504;-78
2022/09/05 14:12:42;;;;;;;8.57;6.93;;;26.30;1.00;;;;;;5147663;27;20745;-79
2022/09/05 14:15:33;;;;;;;8.20;6.50;;;26.30;1.00;;;;;;5126447;27;20423;-76
2022/09/05 14:18:06;;;;;;;8.03;5.70;;;26.20;1.00;;;;;;5134701;27;20481;-81
2022/09/05 14:23:35;;;;;;;8.80;6.20;;;26.10;1.00;;;;;;5151205;27;20450;-85
2022/09/05 14:26:05;;;;;;;7.40;5.53;;;26.10;1.00;;;;;;5139849;27;20454;-81
2022/09/05 14:28:42;;;;;;;8.47;6.07;;;26.00;1.00;;;;;;5153776;27;20449;-77
2022/09/05 14:31:19;;;;;;;9.10;6.37;;;25.80;1.00;;;;;;5158564;27;20441;-78